sensor_id;sensor_type;location;lat;lon;timestamp;temperature;humidity
30399;DHT22;17195;50.838;7.214;2024-01-15T00:01:29;1.80;99.90
30399;DHT22;17195;50.838;7.214;2024-01-15T00:03:54;1.90;99.90
30399;DHT22;17195;50.838;7.214;2024-01-15T00:06:20;1.90;99.90
30399;DHT22;17195;50.838;7.214;2024-01-15T00:08:46;1.90;99.90
30399;DHT22;17195;50.838;7.214;2024-01-15T00:11:11;1.90;99.90
30399;DHT22;17195;50.838;7.214;2024-01-15T00:13:37;1.90;99.90
30399;DHT22;17195;50.838;7.214;2024-01-15T00:16:04;1.90;99.90
30399;DHT22;17195;50.838;7.214;2024-01-15T00:18:29;1.90;99.90
30399;DHT22;17195;50.838;7.214;2024-01-15T00:20:55;1.80;99.90
30399;DHT22;17195;50.838;7.214;2024-01-15T00:23:20;1.80;99.90
30399;DHT22;17195;50.838;7.214;2024-01-15T00:25:46;1.80;99.90
30399;DHT22;17195;50.838;7.214;2024-01-15T00:28:12;1.70;99.90
30399;DHT22;17195;50.838;7.214;2024-01-15T00:30:37;1.80;99.90
30399;DHT22;17195;50.838;7.214;2024-01-15T00:33:03;1.80;99.90
30399;DHT22;17195;50.838;7.214;2024-01-15T00:35:28;1.70;99.90
30399;DHT22;17195;50.838;7.214;2024-01-15T00:37:54;1.60;99.90
30399;DHT22;17195;50.838;7.214;2024-01-15T00:40:19;1.70;99.90
30399;DHT22;17195;50.838;7.214;2024-01-15T00:42:45;1.70;99.90
30399;DHT22;17195;50.838;7.214;2024-01-15T00:45:11;1.70;99.90
30399;DHT22;17195;50.838;7.214;2024-01-15T00:47:36;1.60;99.90
30399;DHT22;17195;50.838;7.214;2024-01-15T00:50:02;1.60;99.90
30399;DHT22;17195;50.838;7.214;2024-01-15T00:52:27;1.50;99.90
30399;DHT22;17195;50.838;7.214;2024-01-15T00:54:53;1.40;99.90
30399;DHT22;17195;50.838;7.214;2024-01-15T00:57:18;1.40;99.90
30399;DHT22;17195;50.838;7.214;2024-01-15T00:59:44;1.40;99.90
30399;DHT22;17195;50.838;7.214;2024-01-15T01:02:10;1.40;99.90
30399;DHT22;17195;50.838;7.214;2024-01-15T01:04:36;1.40;99.90
30399;DHT22;17195;50.838;7.214;2024-01-15T01:07:01;1.40;99.90
30399;DHT22;17195;50.838;7.214;2024-01-15T01:09:27;1.40;99.90
30399;DHT22;17195;50.838;7.214;2024-01-15T01:11:56;1.40;99.90
30399;DHT22;17195;50.838;7.214;2024-01-15T01:14:21;1.40;99.90
30399;DHT22;17195;50.838;7.214;2024-01-15T01:16:47;1.40;99.90
30399;DHT22;17195;50.838;7.214;2024-01-15T01:19:12;1.40;99.90
30399;DHT22;17195;50.838;7.214;2024-01-15T01:21:38;1.50;99.90
30399;DHT22;17195;50.838;7.214;2024-01-15T01:24:04;1.50;99.90
30399;DHT22;17195;50.838;7.214;2024-01-15T01:26:30;1.40;99.90
30399;DHT22;17195;50.838;7.214;2024-01-15T01:28:55;1.40;99.90
30399;DHT22;17195;50.838;7.214;2024-01-15T01:31:21;1.40;99.90
30399;DHT22;17195;50.838;7.214;2024-01-15T01:33:46;1.50;99.90
30399;DHT22;17195;50.838;7.214;2024-01-15T01:36:12;1.50;99.90
30399;DHT22;17195;50.838;7.214;2024-01-15T01:38:38;1.50;99.90
30399;DHT22;17195;50.838;7.214;2024-01-15T01:41:03;1.50;99.90
30399;DHT22;17195;50.838;7.214;2024-01-15T01:43:29;1.60;99.90
30399;DHT22;17195;50.838;7.214;2024-01-15T01:45:56;1.50;99.90
30399;DHT22;17195;50.838;7.214;2024-01-15T01:48:24;1.60;99.90
30399;DHT22;17195;50.838;7.214;2024-01-15T01:50:54;1.50;99.90
30399;DHT22;17195;50.838;7.214;2024-01-15T01:53:22;1.50;99.90
30399;DHT22;17195;50.838;7.214;2024-01-15T01:55:48;1.50;99.90
30399;DHT22;17195;50.838;7.214;2024-01-15T01:58:15;1.50;99.90
30399;DHT22;17195;50.838;7.214;2024-01-15T02:00:41;1.50;99.90
30399;DHT22;17195;50.838;7.214;2024-01-15T02:03:07;1.50;99.90
30399;DHT22;17195;50.838;7.214;2024-01-15T02:05:35;1.50;99.90
30399;DHT22;17195;50.838;7.214;2024-01-15T02:08:00;1.50;99.90
30399;DHT22;17195;50.838;7.214;2024-01-15T02:10:26;1.50;99.90
30399;DHT22;17195;50.838;7.214;2024-01-15T02:12:51;1.40;99.90
30399;DHT22;17195;50.838;7.214;2024-01-15T02:15:17;1.40;99.90
30399;DHT22;17195;50.838;7.214;2024-01-15T02:17:57;1.40;99.90
30399;DHT22;17195;50.838;7.214;2024-01-15T02:20:23;1.40;99.90
30399;DHT22;17195;50.838;7.214;2024-01-15T02:22:48;1.50;99.90
30399;DHT22;17195;50.838;7.214;2024-01-15T02:25:14;1.50;99.90
30399;DHT22;17195;50.838;7.214;2024-01-15T02:27:39;1.50;99.90
30399;DHT22;17195;50.838;7.214;2024-01-15T02:30:07;1.50;99.90
30399;DHT22;17195;50.838;7.214;2024-01-15T02:32:33;1.50;99.90
30399;DHT22;17195;50.838;7.214;2024-01-15T02:34:59;1.50;99.90
30399;DHT22;17195;50.838;7.214;2024-01-15T02:37:24;1.60;99.90
30399;DHT22;17195;50.838;7.214;2024-01-15T02:39:50;1.60;99.90
30399;DHT22;17195;50.838;7.214;2024-01-15T02:42:15;1.50;99.90
30399;DHT22;17195;50.838;7.214;2024-01-15T02:44:41;1.60;99.90
30399;DHT22;17195;50.838;7.214;2024-01-15T02:47:06;1.70;99.90
30399;DHT22;17195;50.838;7.214;2024-01-15T02:49:32;1.70;99.90
30399;DHT22;17195;50.838;7.214;2024-01-15T02:51:57;1.60;99.90
30399;DHT22;17195;50.838;7.214;2024-01-15T02:54:23;1.60;99.90
30399;DHT22;17195;50.838;7.214;2024-01-15T02:56:48;1.60;99.90
30399;DHT22;17195;50.838;7.214;2024-01-15T02:59:14;1.60;99.90
30399;DHT22;17195;50.838;7.214;2024-01-15T03:01:39;1.60;99.90
30399;DHT22;17195;50.838;7.214;2024-01-15T03:04:05;1.60;99.90
30399;DHT22;17195;50.838;7.214;2024-01-15T03:06:30;1.60;99.90
30399;DHT22;17195;50.838;7.214;2024-01-15T03:08:56;1.60;99.90
30399;DHT22;17195;50.838;7.214;2024-01-15T03:11:21;1.60;99.90
30399;DHT22;17195;50.838;7.214;2024-01-15T03:13:47;1.60;99.90
30399;DHT22;17195;50.838;7.214;2024-01-15T03:16:13;1.60;99.90
30399;DHT22;17195;50.838;7.214;2024-01-15T03:18:39;1.60;99.90
30399;DHT22;17195;50.838;7.214;2024-01-15T03:21:05;1.60;99.90
30399;DHT22;17195;50.838;7.214;2024-01-15T03:23:31;1.60;99.90
30399;DHT22;17195;50.838;7.214;2024-01-15T03:25:56;1.60;99.90
30399;DHT22;17195;50.838;7.214;2024-01-15T03:28:22;1.70;99.90
30399;DHT22;17195;50.838;7.214;2024-01-15T03:30:48;1.60;99.90
30399;DHT22;17195;50.838;7.214;2024-01-15T03:33:13;1.60;99.90
30399;DHT22;17195;50.838;7.214;2024-01-15T03:35:39;1.60;99.90
30399;DHT22;17195;50.838;7.214;2024-01-15T03:38:05;1.60;99.90
30399;DHT22;17195;50.838;7.214;2024-01-15T03:40:30;1.60;99.90
30399;DHT22;17195;50.838;7.214;2024-01-15T03:42:56;1.60;99.90
30399;DHT22;17195;50.838;7.214;2024-01-15T03:45:21;1.60;99.90
30399;DHT22;17195;50.838;7.214;2024-01-15T03:47:47;1.60;99.90
30399;DHT22;17195;50.838;7.214;2024-01-15T03:50:13;1.60;99.90
30399;DHT22;17195;50.838;7.214;2024-01-15T03:52:38;1.60;99.90
30399;DHT22;17195;50.838;7.214;2024-01-15T03:55:04;1.50;99.90
30399;DHT22;17195;50.838;7.214;2024-01-15T03:57:30;1.60;99.90
30399;DHT22;17195;50.838;7.214;2024-01-15T03:59:56;1.70;99.90
30399;DHT22;17195;50.838;7.214;2024-01-15T04:02:21;1.70;99.90
30399;DHT22;17195;50.838;7.214;2024-01-15T04:04:47;1.70;99.90
30399;DHT22;17195;50.838;7.214;2024-01-15T04:07:12;1.60;99.90
30399;DHT22;17195;50.838;7.214;2024-01-15T04:09:38;1.60;99.90
30399;DHT22;17195;50.838;7.214;2024-01-15T04:12:03;1.70;99.90
30399;DHT22;17195;50.838;7.214;2024-01-15T04:14:29;1.70;99.90
30399;DHT22;17195;50.838;7.214;2024-01-15T04:16:55;1.70;99.90
30399;DHT22;17195;50.838;7.214;2024-01-15T04:19:20;1.70;99.90
30399;DHT22;17195;50.838;7.214;2024-01-15T04:21:46;1.70;99.90
30399;DHT22;17195;50.838;7.214;2024-01-15T04:24:11;1.70;99.90
30399;DHT22;17195;50.838;7.214;2024-01-15T04:26:37;1.70;99.90
30399;DHT22;17195;50.838;7.214;2024-01-15T04:29:02;1.70;99.90
30399;DHT22;17195;50.838;7.214;2024-01-15T04:31:28;1.80;99.90
30399;DHT22;17195;50.838;7.214;2024-01-15T04:33:53;1.80;99.90
30399;DHT22;17195;50.838;7.214;2024-01-15T04:36:19;1.80;99.90
30399;DHT22;17195;50.838;7.214;2024-01-15T04:38:44;1.90;99.90
30399;DHT22;17195;50.838;7.214;2024-01-15T04:41:15;1.80;99.90
30399;DHT22;17195;50.838;7.214;2024-01-15T04:43:41;1.90;99.90
30399;DHT22;17195;50.838;7.214;2024-01-15T04:46:06;1.90;99.90
30399;DHT22;17195;50.838;7.214;2024-01-15T04:48:32;1.90;99.90
30399;DHT22;17195;50.838;7.214;2024-01-15T04:50:58;1.90;99.90
30399;DHT22;17195;50.838;7.214;2024-01-15T04:53:24;1.90;99.90
30399;DHT22;17195;50.838;7.214;2024-01-15T04:55:49;1.90;99.90
30399;DHT22;17195;50.838;7.214;2024-01-15T04:58:15;1.90;99.90
30399;DHT22;17195;50.838;7.214;2024-01-15T05:00:40;1.90;99.90
30399;DHT22;17195;50.838;7.214;2024-01-15T05:03:06;1.90;99.90
30399;DHT22;17195;50.838;7.214;2024-01-15T05:05:31;1.90;99.90
30399;DHT22;17195;50.838;7.214;2024-01-15T05:07:57;1.80;99.90
30399;DHT22;17195;50.838;7.214;2024-01-15T05:10:22;1.80;99.90
30399;DHT22;17195;50.838;7.214;2024-01-15T05:12:48;1.90;99.90
30399;DHT22;17195;50.838;7.214;2024-01-15T05:15:13;2.00;99.90
30399;DHT22;17195;50.838;7.214;2024-01-15T05:17:39;2.00;99.90
30399;DHT22;17195;50.838;7.214;2024-01-15T05:20:05;2.00;99.90
30399;DHT22;17195;50.838;7.214;2024-01-15T05:22:30;2.00;99.90
30399;DHT22;17195;50.838;7.214;2024-01-15T05:24:56;2.10;99.90
30399;DHT22;17195;50.838;7.214;2024-01-15T05:27:21;2.00;99.90
30399;DHT22;17195;50.838;7.214;2024-01-15T05:29:47;1.90;99.90
30399;DHT22;17195;50.838;7.214;2024-01-15T05:32:12;2.00;99.90
30399;DHT22;17195;50.838;7.214;2024-01-15T05:34:38;2.10;99.90
30399;DHT22;17195;50.838;7.214;2024-01-15T05:37:04;2.10;99.90
30399;DHT22;17195;50.838;7.214;2024-01-15T05:39:29;2.00;99.90
30399;DHT22;17195;50.838;7.214;2024-01-15T05:41:55;2.10;99.90
30399;DHT22;17195;50.838;7.214;2024-01-15T05:44:20;2.10;99.90
30399;DHT22;17195;50.838;7.214;2024-01-15T05:46:46;2.10;99.90
30399;DHT22;17195;50.838;7.214;2024-01-15T05:49:11;2.10;99.90
30399;DHT22;17195;50.838;7.214;2024-01-15T05:51:37;2.10;99.90
30399;DHT22;17195;50.838;7.214;2024-01-15T05:54:02;2.10;99.90
30399;DHT22;17195;50.838;7.214;2024-01-15T05:56:28;2.10;99.90
30399;DHT22;17195;50.838;7.214;2024-01-15T05:58:53;2.10;99.90
30399;DHT22;17195;50.838;7.214;2024-01-15T06:01:19;2.00;99.90
30399;DHT22;17195;50.838;7.214;2024-01-15T06:03:45;2.00;99.90
30399;DHT22;17195;50.838;7.214;2024-01-15T06:06:10;2.10;99.90
30399;DHT22;17195;50.838;7.214;2024-01-15T06:08:36;2.10;99.90
30399;DHT22;17195;50.838;7.214;2024-01-15T06:11:01;2.10;99.90
30399;DHT22;17195;50.838;7.214;2024-01-15T06:13:28;2.10;99.90
30399;DHT22;17195;50.838;7.214;2024-01-15T06:15:53;2.10;99.90
30399;DHT22;17195;50.838;7.214;2024-01-15T06:18:19;2.10;99.90
30399;DHT22;17195;50.838;7.214;2024-01-15T06:20:44;2.10;99.90
30399;DHT22;17195;50.838;7.214;2024-01-15T06:23:10;2.10;99.90
30399;DHT22;17195;50.838;7.214;2024-01-15T06:25:35;2.10;99.90
30399;DHT22;17195;50.838;7.214;2024-01-15T06:28:01;2.00;99.90
30399;DHT22;17195;50.838;7.214;2024-01-15T06:30:26;2.10;99.90
30399;DHT22;17195;50.838;7.214;2024-01-15T06:32:52;2.10;99.90
30399;DHT22;17195;50.838;7.214;2024-01-15T06:35:17;2.00;99.90
30399;DHT22;17195;50.838;7.214;2024-01-15T06:37:43;2.10;99.90
30399;DHT22;17195;50.838;7.214;2024-01-15T06:40:09;2.10;99.90
30399;DHT22;17195;50.838;7.214;2024-01-15T06:42:35;2.10;99.90
30399;DHT22;17195;50.838;7.214;2024-01-15T06:45:00;2.10;99.90
30399;DHT22;17195;50.838;7.214;2024-01-15T06:47:26;2.10;99.90
30399;DHT22;17195;50.838;7.214;2024-01-15T06:49:51;2.10;99.90
30399;DHT22;17195;50.838;7.214;2024-01-15T06:52:17;2.10;99.90
30399;DHT22;17195;50.838;7.214;2024-01-15T06:54:43;2.00;99.90
30399;DHT22;17195;50.838;7.214;2024-01-15T06:57:08;2.00;99.90
30399;DHT22;17195;50.838;7.214;2024-01-15T06:59:34;2.00;99.90
30399;DHT22;17195;50.838;7.214;2024-01-15T07:02:02;2.00;99.90
30399;DHT22;17195;50.838;7.214;2024-01-15T07:04:28;1.90;99.90
30399;DHT22;17195;50.838;7.214;2024-01-15T07:06:53;1.90;99.90
30399;DHT22;17195;50.838;7.214;2024-01-15T07:09:19;1.90;99.90
30399;DHT22;17195;50.838;7.214;2024-01-15T07:11:45;1.90;99.90
30399;DHT22;17195;50.838;7.214;2024-01-15T07:14:12;1.90;99.90
30399;DHT22;17195;50.838;7.214;2024-01-15T07:16:37;1.90;99.90
30399;DHT22;17195;50.838;7.214;2024-01-15T07:19:03;1.90;99.90
30399;DHT22;17195;50.838;7.214;2024-01-15T07:21:29;1.90;99.90
30399;DHT22;17195;50.838;7.214;2024-01-15T07:23:55;1.90;99.90
30399;DHT22;17195;50.838;7.214;2024-01-15T07:26:21;1.80;99.90
30399;DHT22;17195;50.838;7.214;2024-01-15T07:28:46;1.80;99.90
30399;DHT22;17195;50.838;7.214;2024-01-15T07:31:12;1.80;99.90
30399;DHT22;17195;50.838;7.214;2024-01-15T07:33:38;1.80;99.90
30399;DHT22;17195;50.838;7.214;2024-01-15T07:36:03;1.80;99.90
30399;DHT22;17195;50.838;7.214;2024-01-15T07:38:29;1.80;99.90
30399;DHT22;17195;50.838;7.214;2024-01-15T07:40:55;1.90;99.90
30399;DHT22;17195;50.838;7.214;2024-01-15T07:43:20;1.90;99.90
30399;DHT22;17195;50.838;7.214;2024-01-15T07:45:46;1.90;99.90
30399;DHT22;17195;50.838;7.214;2024-01-15T07:48:12;1.80;99.90
30399;DHT22;17195;50.838;7.214;2024-01-15T07:50:37;1.90;99.90
30399;DHT22;17195;50.838;7.214;2024-01-15T07:53:03;1.90;99.90
30399;DHT22;17195;50.838;7.214;2024-01-15T07:55:29;1.90;99.90
30399;DHT22;17195;50.838;7.214;2024-01-15T07:57:54;1.90;99.90
30399;DHT22;17195;50.838;7.214;2024-01-15T08:00:24;1.90;99.90
30399;DHT22;17195;50.838;7.214;2024-01-15T08:02:49;1.90;99.90
30399;DHT22;17195;50.838;7.214;2024-01-15T08:05:16;1.90;99.90
30399;DHT22;17195;50.838;7.214;2024-01-15T08:07:42;1.90;99.90
30399;DHT22;17195;50.838;7.214;2024-01-15T08:10:07;1.90;99.90
30399;DHT22;17195;50.838;7.214;2024-01-15T08:12:33;2.00;99.90
30399;DHT22;17195;50.838;7.214;2024-01-15T08:14:58;2.00;99.90
30399;DHT22;17195;50.838;7.214;2024-01-15T08:17:24;2.00;99.90
30399;DHT22;17195;50.838;7.214;2024-01-15T08:19:54;2.00;99.90
30399;DHT22;17195;50.838;7.214;2024-01-15T08:22:19;2.00;99.90
30399;DHT22;17195;50.838;7.214;2024-01-15T08:24:46;2.10;99.90
30399;DHT22;17195;50.838;7.214;2024-01-15T08:27:11;2.10;99.90
30399;DHT22;17195;50.838;7.214;2024-01-15T08:29:37;2.10;99.90
30399;DHT22;17195;50.838;7.214;2024-01-15T08:32:03;2.10;99.90
30399;DHT22;17195;50.838;7.214;2024-01-15T08:34:28;2.10;99.90
30399;DHT22;17195;50.838;7.214;2024-01-15T08:36:54;2.10;99.90
30399;DHT22;17195;50.838;7.214;2024-01-15T08:39:19;2.20;99.90
30399;DHT22;17195;50.838;7.214;2024-01-15T08:41:45;2.20;99.90
30399;DHT22;17195;50.838;7.214;2024-01-15T08:44:12;2.20;99.90
30399;DHT22;17195;50.838;7.214;2024-01-15T08:46:37;2.30;99.90
30399;DHT22;17195;50.838;7.214;2024-01-15T08:49:03;2.30;99.90
30399;DHT22;17195;50.838;7.214;2024-01-15T08:51:29;2.30;99.90
30399;DHT22;17195;50.838;7.214;2024-01-15T08:53:58;2.30;99.90
30399;DHT22;17195;50.838;7.214;2024-01-15T08:56:23;2.30;99.90
30399;DHT22;17195;50.838;7.214;2024-01-15T08:58:49;2.40;99.90
30399;DHT22;17195;50.838;7.214;2024-01-15T09:01:15;2.40;99.90
30399;DHT22;17195;50.838;7.214;2024-01-15T09:03:41;2.40;99.90
30399;DHT22;17195;50.838;7.214;2024-01-15T09:06:08;2.40;99.90
30399;DHT22;17195;50.838;7.214;2024-01-15T09:08:34;2.40;99.90
30399;DHT22;17195;50.838;7.214;2024-01-15T09:11:00;2.40;99.90
30399;DHT22;17195;50.838;7.214;2024-01-15T09:13:28;2.40;99.90
30399;DHT22;17195;50.838;7.214;2024-01-15T09:15:53;2.40;99.90
30399;DHT22;17195;50.838;7.214;2024-01-15T09:18:19;2.40;99.90
30399;DHT22;17195;50.838;7.214;2024-01-15T09:20:44;2.40;99.90
30399;DHT22;17195;50.838;7.214;2024-01-15T09:23:10;2.40;99.90
30399;DHT22;17195;50.838;7.214;2024-01-15T09:25:35;2.40;99.90
30399;DHT22;17195;50.838;7.214;2024-01-15T09:28:01;2.40;99.90
30399;DHT22;17195;50.838;7.214;2024-01-15T09:30:27;2.40;99.90
30399;DHT22;17195;50.838;7.214;2024-01-15T09:32:53;2.40;99.90
30399;DHT22;17195;50.838;7.214;2024-01-15T09:35:18;2.40;99.90
30399;DHT22;17195;50.838;7.214;2024-01-15T09:37:44;2.30;99.90
30399;DHT22;17195;50.838;7.214;2024-01-15T09:40:13;2.30;99.90
30399;DHT22;17195;50.838;7.214;2024-01-15T09:42:40;2.30;99.90
30399;DHT22;17195;50.838;7.214;2024-01-15T09:45:06;2.40;99.90
30399;DHT22;17195;50.838;7.214;2024-01-15T09:47:32;2.30;99.90
30399;DHT22;17195;50.838;7.214;2024-01-15T09:49:58;2.30;99.90
30399;DHT22;17195;50.838;7.214;2024-01-15T09:52:24;2.20;99.90
30399;DHT22;17195;50.838;7.214;2024-01-15T09:54:50;2.20;99.90
30399;DHT22;17195;50.838;7.214;2024-01-15T09:57:17;2.10;99.90
30399;DHT22;17195;50.838;7.214;2024-01-15T09:59:43;2.00;99.90
30399;DHT22;17195;50.838;7.214;2024-01-15T10:02:09;1.90;99.90
30399;DHT22;17195;50.838;7.214;2024-01-15T10:04:38;1.80;99.90
30399;DHT22;17195;50.838;7.214;2024-01-15T10:07:05;1.70;99.90
30399;DHT22;17195;50.838;7.214;2024-01-15T10:09:32;1.70;99.90
30399;DHT22;17195;50.838;7.214;2024-01-15T10:11:58;1.60;99.90
30399;DHT22;17195;50.838;7.214;2024-01-15T10:14:24;1.60;99.90
30399;DHT22;17195;50.838;7.214;2024-01-15T10:16:50;1.60;99.90
30399;DHT22;17195;50.838;7.214;2024-01-15T10:19:15;1.60;99.90
30399;DHT22;17195;50.838;7.214;2024-01-15T10:21:41;1.50;99.90
30399;DHT22;17195;50.838;7.214;2024-01-15T10:24:06;1.50;99.90
30399;DHT22;17195;50.838;7.214;2024-01-15T10:26:32;1.50;99.90
30399;DHT22;17195;50.838;7.214;2024-01-15T10:29:01;1.50;99.90
30399;DHT22;17195;50.838;7.214;2024-01-15T10:31:27;1.50;99.90
30399;DHT22;17195;50.838;7.214;2024-01-15T10:33:53;1.40;99.90
30399;DHT22;17195;50.838;7.214;2024-01-15T10:36:18;1.40;99.90
30399;DHT22;17195;50.838;7.214;2024-01-15T10:38:45;1.50;99.90
30399;DHT22;17195;50.838;7.214;2024-01-15T10:41:11;1.60;99.90
30399;DHT22;17195;50.838;7.214;2024-01-15T10:43:37;1.60;99.90
30399;DHT22;17195;50.838;7.214;2024-01-15T10:46:03;1.60;99.90
30399;DHT22;17195;50.838;7.214;2024-01-15T10:48:29;1.60;99.90
30399;DHT22;17195;50.838;7.214;2024-01-15T10:50:57;1.60;99.90
30399;DHT22;17195;50.838;7.214;2024-01-15T10:53:23;1.50;99.90
30399;DHT22;17195;50.838;7.214;2024-01-15T10:55:50;1.50;99.90
30399;DHT22;17195;50.838;7.214;2024-01-15T10:58:17;1.50;99.90
30399;DHT22;17195;50.838;7.214;2024-01-15T11:00:44;1.60;99.90
30399;DHT22;17195;50.838;7.214;2024-01-15T11:03:10;1.50;99.90
30399;DHT22;17195;50.838;7.214;2024-01-15T11:05:43;1.50;99.90
30399;DHT22;17195;50.838;7.214;2024-01-15T11:08:10;1.50;99.90
30399;DHT22;17195;50.838;7.214;2024-01-15T11:10:50;1.50;99.90
30399;DHT22;17195;50.838;7.214;2024-01-15T11:13:40;1.50;99.90
30399;DHT22;17195;50.838;7.214;2024-01-15T11:16:08;1.50;99.90
30399;DHT22;17195;50.838;7.214;2024-01-15T11:18:43;1.40;99.90
30399;DHT22;17195;50.838;7.214;2024-01-15T11:23:44;1.40;99.90
30399;DHT22;17195;50.838;7.214;2024-01-15T11:26:45;1.40;99.90
30399;DHT22;17195;50.838;7.214;2024-01-15T11:29:31;1.40;99.90
30399;DHT22;17195;50.838;7.214;2024-01-15T11:32:02;1.40;99.90
30399;DHT22;17195;50.838;7.214;2024-01-15T11:37:18;1.40;99.90
30399;DHT22;17195;50.838;7.214;2024-01-15T11:39:44;1.50;99.90
30399;DHT22;17195;50.838;7.214;2024-01-15T11:42:11;1.60;99.90
30399;DHT22;17195;50.838;7.214;2024-01-15T11:44:38;1.70;99.90
30399;DHT22;17195;50.838;7.214;2024-01-15T11:47:05;1.70;99.90
30399;DHT22;17195;50.838;7.214;2024-01-15T11:52:25;1.80;99.90
30399;DHT22;17195;50.838;7.214;2024-01-15T11:54:55;1.80;99.90
30399;DHT22;17195;50.838;7.214;2024-01-15T11:57:51;1.90;99.90
30399;DHT22;17195;50.838;7.214;2024-01-15T12:00:17;1.90;99.90
30399;DHT22;17195;50.838;7.214;2024-01-15T12:02:44;1.90;99.90
30399;DHT22;17195;50.838;7.214;2024-01-15T12:05:11;1.90;99.90
30399;DHT22;17195;50.838;7.214;2024-01-15T12:07:41;2.00;99.90
30399;DHT22;17195;50.838;7.214;2024-01-15T12:10:11;2.00;99.90
30399;DHT22;17195;50.838;7.214;2024-01-15T12:15:03;2.00;99.90
30399;DHT22;17195;50.838;7.214;2024-01-15T12:17:29;1.90;99.90
30399;DHT22;17195;50.838;7.214;2024-01-15T12:19:54;1.90;99.90
30399;DHT22;17195;50.838;7.214;2024-01-15T12:22:21;1.80;99.90
30399;DHT22;17195;50.838;7.214;2024-01-15T12:24:46;1.80;99.90
30399;DHT22;17195;50.838;7.214;2024-01-15T12:27:12;1.80;99.90
30399;DHT22;17195;50.838;7.214;2024-01-15T12:29:38;1.90;99.90
30399;DHT22;17195;50.838;7.214;2024-01-15T12:32:05;1.90;99.90
30399;DHT22;17195;50.838;7.214;2024-01-15T12:34:31;1.90;99.90
30399;DHT22;17195;50.838;7.214;2024-01-15T12:36:58;2.00;99.90
30399;DHT22;17195;50.838;7.214;2024-01-15T12:39:24;2.10;99.90
30399;DHT22;17195;50.838;7.214;2024-01-15T12:41:50;2.30;99.90
30399;DHT22;17195;50.838;7.214;2024-01-15T12:44:16;2.40;99.90
30399;DHT22;17195;50.838;7.214;2024-01-15T12:46:42;2.50;99.90
30399;DHT22;17195;50.838;7.214;2024-01-15T12:49:08;2.60;99.90
30399;DHT22;17195;50.838;7.214;2024-01-15T12:51:36;2.60;99.90
30399;DHT22;17195;50.838;7.214;2024-01-15T12:54:02;2.60;99.90
30399;DHT22;17195;50.838;7.214;2024-01-15T12:56:28;2.60;99.90
30399;DHT22;17195;50.838;7.214;2024-01-15T12:58:53;2.70;99.90
30399;DHT22;17195;50.838;7.214;2024-01-15T13:01:19;2.60;99.90
30399;DHT22;17195;50.838;7.214;2024-01-15T13:03:44;2.60;99.90
30399;DHT22;17195;50.838;7.214;2024-01-15T13:06:10;2.60;99.90
30399;DHT22;17195;50.838;7.214;2024-01-15T13:08:36;2.50;99.90
30399;DHT22;17195;50.838;7.214;2024-01-15T13:11:03;2.60;99.90
30399;DHT22;17195;50.838;7.214;2024-01-15T13:13:28;2.50;99.90
30399;DHT22;17195;50.838;7.214;2024-01-15T13:15:54;2.60;99.90
30399;DHT22;17195;50.838;7.214;2024-01-15T13:18:19;2.50;99.90
30399;DHT22;17195;50.838;7.214;2024-01-15T13:20:45;2.50;99.90
30399;DHT22;17195;50.838;7.214;2024-01-15T13:23:11;2.50;99.90
30399;DHT22;17195;50.838;7.214;2024-01-15T13:25:37;2.50;99.90
30399;DHT22;17195;50.838;7.214;2024-01-15T13:28:04;2.50;99.90
30399;DHT22;17195;50.838;7.214;2024-01-15T13:30:30;2.50;99.90
30399;DHT22;17195;50.838;7.214;2024-01-15T13:32:56;2.40;99.90
30399;DHT22;17195;50.838;7.214;2024-01-15T13:35:23;2.40;99.90
30399;DHT22;17195;50.838;7.214;2024-01-15T13:37:48;2.30;99.90
30399;DHT22;17195;50.838;7.214;2024-01-15T13:40:14;2.40;99.90
30399;DHT22;17195;50.838;7.214;2024-01-15T13:42:46;2.30;99.90
30399;DHT22;17195;50.838;7.214;2024-01-15T13:45:12;2.40;99.90
30399;DHT22;17195;50.838;7.214;2024-01-15T13:47:43;2.40;99.90
30399;DHT22;17195;50.838;7.214;2024-01-15T13:50:09;2.30;99.90
30399;DHT22;17195;50.838;7.214;2024-01-15T13:52:35;2.40;99.90
30399;DHT22;17195;50.838;7.214;2024-01-15T13:55:01;2.40;99.90
30399;DHT22;17195;50.838;7.214;2024-01-15T13:57:27;2.30;99.90
30399;DHT22;17195;50.838;7.214;2024-01-15T13:59:52;2.30;99.90
30399;DHT22;17195;50.838;7.214;2024-01-15T14:02:18;2.30;99.90
30399;DHT22;17195;50.838;7.214;2024-01-15T14:04:45;2.20;99.90
30399;DHT22;17195;50.838;7.214;2024-01-15T14:07:11;2.20;99.90
30399;DHT22;17195;50.838;7.214;2024-01-15T14:09:36;2.20;99.90
30399;DHT22;17195;50.838;7.214;2024-01-15T14:12:03;2.30;99.90
30399;DHT22;17195;50.838;7.214;2024-01-15T14:14:29;2.30;99.90
30399;DHT22;17195;50.838;7.214;2024-01-15T14:16:54;2.30;99.90
30399;DHT22;17195;50.838;7.214;2024-01-15T14:19:20;2.30;99.90
30399;DHT22;17195;50.838;7.214;2024-01-15T14:21:46;2.20;99.90
30399;DHT22;17195;50.838;7.214;2024-01-15T14:24:11;2.30;99.90
30399;DHT22;17195;50.838;7.214;2024-01-15T14:26:37;2.30;99.90
30399;DHT22;17195;50.838;7.214;2024-01-15T14:29:02;2.20;99.90
30399;DHT22;17195;50.838;7.214;2024-01-15T14:31:28;2.30;99.90
30399;DHT22;17195;50.838;7.214;2024-01-15T14:33:54;2.20;99.90
30399;DHT22;17195;50.838;7.214;2024-01-15T14:36:20;2.10;99.90
30399;DHT22;17195;50.838;7.214;2024-01-15T14:38:46;2.10;99.90
30399;DHT22;17195;50.838;7.214;2024-01-15T14:41:11;2.10;99.90
30399;DHT22;17195;50.838;7.214;2024-01-15T14:43:37;2.10;99.90
30399;DHT22;17195;50.838;7.214;2024-01-15T14:46:03;2.20;99.90
30399;DHT22;17195;50.838;7.214;2024-01-15T14:48:28;2.10;99.90
30399;DHT22;17195;50.838;7.214;2024-01-15T14:50:55;2.10;99.90
30399;DHT22;17195;50.838;7.214;2024-01-15T14:53:20;2.10;99.90
30399;DHT22;17195;50.838;7.214;2024-01-15T14:55:46;2.10;99.90
30399;DHT22;17195;50.838;7.214;2024-01-15T14:58:12;2.10;99.90
30399;DHT22;17195;50.838;7.214;2024-01-15T15:00:38;2.20;99.90
30399;DHT22;17195;50.838;7.214;2024-01-15T15:03:03;2.20;99.90
30399;DHT22;17195;50.838;7.214;2024-01-15T15:05:29;2.20;99.90
30399;DHT22;17195;50.838;7.214;2024-01-15T15:07:54;2.30;99.90
30399;DHT22;17195;50.838;7.214;2024-01-15T15:10:20;2.20;99.90
30399;DHT22;17195;50.838;7.214;2024-01-15T15:12:46;2.00;99.90
30399;DHT22;17195;50.838;7.214;2024-01-15T15:15:11;1.90;99.90
30399;DHT22;17195;50.838;7.214;2024-01-15T15:17:37;2.00;99.90
30399;DHT22;17195;50.838;7.214;2024-01-15T15:20:05;2.00;99.90
30399;DHT22;17195;50.838;7.214;2024-01-15T15:22:30;1.90;99.90
30399;DHT22;17195;50.838;7.214;2024-01-15T15:24:56;1.80;99.90
30399;DHT22;17195;50.838;7.214;2024-01-15T15:27:22;1.80;99.90
30399;DHT22;17195;50.838;7.214;2024-01-15T15:29:47;1.80;99.90
30399;DHT22;17195;50.838;7.214;2024-01-15T15:32:15;1.80;99.90
30399;DHT22;17195;50.838;7.214;2024-01-15T15:34:41;1.80;99.90
30399;DHT22;17195;50.838;7.214;2024-01-15T15:37:06;1.80;99.90
30399;DHT22;17195;50.838;7.214;2024-01-15T15:39:31;1.90;99.90
30399;DHT22;17195;50.838;7.214;2024-01-15T15:41:57;1.90;99.90
30399;DHT22;17195;50.838;7.214;2024-01-15T15:44:23;1.80;99.90
30399;DHT22;17195;50.838;7.214;2024-01-15T15:46:49;1.80;99.90
30399;DHT22;17195;50.838;7.214;2024-01-15T15:49:14;1.80;99.90